sensor_id;sensor_type;location;lat;lon;timestamp;P1;durP1;ratioP1;P2;durP2;ratioP2
61527;SDS011;47395;42.032;-8.634;2023-08-30T00:00:04;5.47;;;2.10;;
61527;SDS011;47395;42.032;-8.634;2023-08-30T00:02:07;2.30;;;1.90;;
61527;SDS011;47395;42.032;-8.634;2023-08-30T00:04:08;1.80;;;1.70;;
61527;SDS011;47395;42.032;-8.634;2023-08-30T00:06:10;4.15;;;1.92;;
61527;SDS011;47395;42.032;-8.634;2023-08-30T00:08:11;4.43;;;2.10;;
61527;SDS011;47395;42.032;-8.634;2023-08-30T00:10:13;2.45;;;1.83;;
61527;SDS011;47395;42.032;-8.634;2023-08-30T00:12:14;4.00;;;2.10;;
61527;SDS011;47395;42.032;-8.634;2023-08-30T00:14:15;2.88;;;2.15;;
61527;SDS011;47395;42.032;-8.634;2023-08-30T00:16:16;3.45;;;2.10;;
61527;SDS011;47395;42.032;-8.634;2023-08-30T00:18:17;3.97;;;2.20;;
61527;SDS011;47395;42.032;-8.634;2023-08-30T00:20:19;7.60;;;2.65;;
61527;SDS011;47395;42.032;-8.634;2023-08-30T00:22:21;15.32;;;3.17;;
61527;SDS011;47395;42.032;-8.634;2023-08-30T00:24:22;5.57;;;2.33;;
61527;SDS011;47395;42.032;-8.634;2023-08-30T00:26:23;4.55;;;2.00;;
61527;SDS011;47395;42.032;-8.634;2023-08-30T00:28:23;3.05;;;2.28;;
61527;SDS011;47395;42.032;-8.634;2023-08-30T00:30:24;5.38;;;2.63;;
61527;SDS011;47395;42.032;-8.634;2023-08-30T00:32:25;2.67;;;2.35;;
61527;SDS011;47395;42.032;-8.634;2023-08-30T00:34:26;4.53;;;2.35;;
61527;SDS011;47395;42.032;-8.634;2023-08-30T00:36:27;5.43;;;2.20;;
61527;SDS011;47395;42.032;-8.634;2023-08-30T00:38:28;7.05;;;2.72;;
61527;SDS011;47395;42.032;-8.634;2023-08-30T00:40:29;2.53;;;2.28;;
61527;SDS011;47395;42.032;-8.634;2023-08-30T00:42:37;6.63;;;2.38;;
61527;SDS011;47395;42.032;-8.634;2023-08-30T00:44:41;3.00;;;2.58;;
61527;SDS011;47395;42.032;-8.634;2023-08-30T00:46:41;2.70;;;2.33;;
61527;SDS011;47395;42.032;-8.634;2023-08-30T00:48:43;4.75;;;2.60;;
61527;SDS011;47395;42.032;-8.634;2023-08-30T00:50:44;3.85;;;2.78;;
61527;SDS011;47395;42.032;-8.634;2023-08-30T00:52:47;3.25;;;2.42;;
61527;SDS011;47395;42.032;-8.634;2023-08-30T00:54:48;2.65;;;2.45;;
61527;SDS011;47395;42.032;-8.634;2023-08-30T00:56:49;4.03;;;2.58;;
61527;SDS011;47395;42.032;-8.634;2023-08-30T00:58:50;4.30;;;2.53;;
61527;SDS011;47395;42.032;-8.634;2023-08-30T01:00:52;4.13;;;2.55;;
61527;SDS011;47395;42.032;-8.634;2023-08-30T01:02:54;3.28;;;2.63;;
61527;SDS011;47395;42.032;-8.634;2023-08-30T01:04:55;3.50;;;3.05;;
61527;SDS011;47395;42.032;-8.634;2023-08-30T01:06:56;3.88;;;2.38;;
61527;SDS011;47395;42.032;-8.634;2023-08-30T01:08:58;4.07;;;2.55;;
61527;SDS011;47395;42.032;-8.634;2023-08-30T01:11:03;4.38;;;2.50;;
61527;SDS011;47395;42.032;-8.634;2023-08-30T01:13:13;3.55;;;2.40;;
61527;SDS011;47395;42.032;-8.634;2023-08-30T01:15:20;4.25;;;2.67;;
61527;SDS011;47395;42.032;-8.634;2023-08-30T01:17:23;5.65;;;2.70;;
61527;SDS011;47395;42.032;-8.634;2023-08-30T01:19:59;5.00;;;2.85;;
61527;SDS011;47395;42.032;-8.634;2023-08-30T01:27:28;4.85;;;2.70;;
61527;SDS011;47395;42.032;-8.634;2023-08-30T01:29:32;7.88;;;2.67;;
61527;SDS011;47395;42.032;-8.634;2023-08-30T01:31:37;3.25;;;2.97;;
61527;SDS011;47395;42.032;-8.634;2023-08-30T01:33:40;3.58;;;2.75;;
61527;SDS011;47395;42.032;-8.634;2023-08-30T01:35:42;4.53;;;3.00;;
61527;SDS011;47395;42.032;-8.634;2023-08-30T01:37:44;4.47;;;2.33;;
61527;SDS011;47395;42.032;-8.634;2023-08-30T01:39:46;2.50;;;2.33;;
61527;SDS011;47395;42.032;-8.634;2023-08-30T01:41:47;3.35;;;2.90;;
61527;SDS011;47395;42.032;-8.634;2023-08-30T01:43:49;3.83;;;3.03;;
61527;SDS011;47395;42.032;-8.634;2023-08-30T01:45:52;6.63;;;3.00;;
61527;SDS011;47395;42.032;-8.634;2023-08-30T01:47:54;4.13;;;2.92;;
61527;SDS011;47395;42.032;-8.634;2023-08-30T01:49:57;4.28;;;2.92;;
61527;SDS011;47395;42.032;-8.634;2023-08-30T01:51:58;5.00;;;2.78;;
61527;SDS011;47395;42.032;-8.634;2023-08-30T01:54:02;5.00;;;2.83;;
61527;SDS011;47395;42.032;-8.634;2023-08-30T01:56:03;2.88;;;2.65;;
61527;SDS011;47395;42.032;-8.634;2023-08-30T01:58:05;3.20;;;2.70;;
61527;SDS011;47395;42.032;-8.634;2023-08-30T02:00:07;3.88;;;2.47;;
61527;SDS011;47395;42.032;-8.634;2023-08-30T02:02:16;7.18;;;3.10;;
61527;SDS011;47395;42.032;-8.634;2023-08-30T02:04:16;5.15;;;2.70;;
61527;SDS011;47395;42.032;-8.634;2023-08-30T02:06:21;3.10;;;2.85;;
61527;SDS011;47395;42.032;-8.634;2023-08-30T02:08:26;5.35;;;2.60;;
61527;SDS011;47395;42.032;-8.634;2023-08-30T02:10:34;2.80;;;2.60;;
61527;SDS011;47395;42.032;-8.634;2023-08-30T02:12:46;4.70;;;2.92;;
61527;SDS011;47395;42.032;-8.634;2023-08-30T02:14:49;2.85;;;2.65;;
61527;SDS011;47395;42.032;-8.634;2023-08-30T02:16:50;2.95;;;2.63;;
61527;SDS011;47395;42.032;-8.634;2023-08-30T02:18:51;3.17;;;2.72;;
61527;SDS011;47395;42.032;-8.634;2023-08-30T02:20:53;3.75;;;3.15;;
61527;SDS011;47395;42.032;-8.634;2023-08-30T02:22:59;2.60;;;2.40;;
61527;SDS011;47395;42.032;-8.634;2023-08-30T02:25:00;4.07;;;3.13;;
61527;SDS011;47395;42.032;-8.634;2023-08-30T02:27:05;3.20;;;3.00;;
61527;SDS011;47395;42.032;-8.634;2023-08-30T02:29:07;3.13;;;2.80;;
61527;SDS011;47395;42.032;-8.634;2023-08-30T02:31:11;3.83;;;2.90;;
61527;SDS011;47395;42.032;-8.634;2023-08-30T02:33:12;3.38;;;2.88;;
61527;SDS011;47395;42.032;-8.634;2023-08-30T02:35:14;3.65;;;2.97;;
61527;SDS011;47395;42.032;-8.634;2023-08-30T02:37:15;3.95;;;3.17;;
61527;SDS011;47395;42.032;-8.634;2023-08-30T02:39:15;3.05;;;2.85;;
61527;SDS011;47395;42.032;-8.634;2023-08-30T02:41:18;4.60;;;2.90;;
61527;SDS011;47395;42.032;-8.634;2023-08-30T02:43:19;3.40;;;2.58;;
61527;SDS011;47395;42.032;-8.634;2023-08-30T02:45:19;4.57;;;3.40;;
61527;SDS011;47395;42.032;-8.634;2023-08-30T02:47:20;4.63;;;3.08;;
61527;SDS011;47395;42.032;-8.634;2023-08-30T02:49:21;3.30;;;2.97;;
61527;SDS011;47395;42.032;-8.634;2023-08-30T02:51:22;5.18;;;3.17;;
61527;SDS011;47395;42.032;-8.634;2023-08-30T02:53:24;5.43;;;3.88;;
61527;SDS011;47395;42.032;-8.634;2023-08-30T02:55:25;5.30;;;3.00;;
61527;SDS011;47395;42.032;-8.634;2023-08-30T02:57:26;6.47;;;3.42;;
61527;SDS011;47395;42.032;-8.634;2023-08-30T02:59:26;5.47;;;3.55;;
61527;SDS011;47395;42.032;-8.634;2023-08-30T03:01:27;3.42;;;3.17;;
61527;SDS011;47395;42.032;-8.634;2023-08-30T03:03:28;3.83;;;3.17;;
61527;SDS011;47395;42.032;-8.634;2023-08-30T03:05:29;4.05;;;3.45;;
61527;SDS011;47395;42.032;-8.634;2023-08-30T03:07:30;5.65;;;3.80;;
61527;SDS011;47395;42.032;-8.634;2023-08-30T03:09:31;4.10;;;3.58;;
61527;SDS011;47395;42.032;-8.634;2023-08-30T03:11:32;6.50;;;3.03;;
61527;SDS011;47395;42.032;-8.634;2023-08-30T03:13:32;4.75;;;3.35;;
61527;SDS011;47395;42.032;-8.634;2023-08-30T03:15:34;3.40;;;3.10;;
61527;SDS011;47395;42.032;-8.634;2023-08-30T03:17:35;3.95;;;3.58;;
61527;SDS011;47395;42.032;-8.634;2023-08-30T03:19:36;5.20;;;4.25;;
61527;SDS011;47395;42.032;-8.634;2023-08-30T03:21:37;4.10;;;3.35;;
61527;SDS011;47395;42.032;-8.634;2023-08-30T03:23:38;4.07;;;3.40;;
61527;SDS011;47395;42.032;-8.634;2023-08-30T03:25:40;5.47;;;3.20;;
61527;SDS011;47395;42.032;-8.634;2023-08-30T03:27:40;5.90;;;3.47;;
61527;SDS011;47395;42.032;-8.634;2023-08-30T03:29:43;3.45;;;3.15;;
61527;SDS011;47395;42.032;-8.634;2023-08-30T03:31:44;11.88;;;3.63;;
61527;SDS011;47395;42.032;-8.634;2023-08-30T03:33:45;3.00;;;2.90;;
61527;SDS011;47395;42.032;-8.634;2023-08-30T03:35:47;4.30;;;3.53;;
61527;SDS011;47395;42.032;-8.634;2023-08-30T03:37:48;7.25;;;3.33;;
61527;SDS011;47395;42.032;-8.634;2023-08-30T03:39:49;6.35;;;4.07;;
61527;SDS011;47395;42.032;-8.634;2023-08-30T03:41:50;4.43;;;4.05;;
61527;SDS011;47395;42.032;-8.634;2023-08-30T03:43:51;4.53;;;4.13;;
61527;SDS011;47395;42.032;-8.634;2023-08-30T03:45:52;5.95;;;4.15;;
61527;SDS011;47395;42.032;-8.634;2023-08-30T03:47:53;5.07;;;4.05;;
61527;SDS011;47395;42.032;-8.634;2023-08-30T03:49:54;5.32;;;4.22;;
61527;SDS011;47395;42.032;-8.634;2023-08-30T03:51:55;5.93;;;3.95;;
61527;SDS011;47395;42.032;-8.634;2023-08-30T03:53:57;7.95;;;4.20;;
61527;SDS011;47395;42.032;-8.634;2023-08-30T03:55:58;3.90;;;3.60;;
61527;SDS011;47395;42.032;-8.634;2023-08-30T03:57:59;5.53;;;4.90;;
61527;SDS011;47395;42.032;-8.634;2023-08-30T04:00:00;5.35;;;3.88;;
61527;SDS011;47395;42.032;-8.634;2023-08-30T04:04:26;3.95;;;3.65;;
61527;SDS011;47395;42.032;-8.634;2023-08-30T04:06:28;6.05;;;4.00;;
61527;SDS011;47395;42.032;-8.634;2023-08-30T04:08:29;5.90;;;4.03;;
61527;SDS011;47395;42.032;-8.634;2023-08-30T04:10:33;4.47;;;3.67;;
61527;SDS011;47395;42.032;-8.634;2023-08-30T04:12:38;4.60;;;3.85;;
61527;SDS011;47395;42.032;-8.634;2023-08-30T04:14:40;8.63;;;4.07;;
61527;SDS011;47395;42.032;-8.634;2023-08-30T04:16:41;4.10;;;3.72;;
61527;SDS011;47395;42.032;-8.634;2023-08-30T04:18:43;5.05;;;3.70;;
61527;SDS011;47395;42.032;-8.634;2023-08-30T04:20:45;3.78;;;3.47;;
61527;SDS011;47395;42.032;-8.634;2023-08-30T04:22:47;8.52;;;4.57;;
61527;SDS011;47395;42.032;-8.634;2023-08-30T04:24:48;10.15;;;3.70;;
61527;SDS011;47395;42.032;-8.634;2023-08-30T04:26:50;3.83;;;3.53;;
61527;SDS011;47395;42.032;-8.634;2023-08-30T04:28:53;6.05;;;4.05;;
61527;SDS011;47395;42.032;-8.634;2023-08-30T04:30:54;4.97;;;3.85;;
61527;SDS011;47395;42.032;-8.634;2023-08-30T04:32:57;4.07;;;3.78;;
61527;SDS011;47395;42.032;-8.634;2023-08-30T04:34:59;5.80;;;3.72;;
61527;SDS011;47395;42.032;-8.634;2023-08-30T04:37:00;4.03;;;3.72;;
61527;SDS011;47395;42.032;-8.634;2023-08-30T04:39:01;4.45;;;3.83;;
61527;SDS011;47395;42.032;-8.634;2023-08-30T04:41:02;4.53;;;4.10;;
61527;SDS011;47395;42.032;-8.634;2023-08-30T04:43:09;7.13;;;3.45;;
61527;SDS011;47395;42.032;-8.634;2023-08-30T04:45:10;3.50;;;3.30;;
61527;SDS011;47395;42.032;-8.634;2023-08-30T04:47:11;4.90;;;3.45;;
61527;SDS011;47395;42.032;-8.634;2023-08-30T04:49:13;4.28;;;3.42;;
61527;SDS011;47395;42.032;-8.634;2023-08-30T04:51:14;5.07;;;3.72;;
61527;SDS011;47395;42.032;-8.634;2023-08-30T04:53:15;5.78;;;3.67;;
61527;SDS011;47395;42.032;-8.634;2023-08-30T04:55:17;3.30;;;3.10;;
61527;SDS011;47395;42.032;-8.634;2023-08-30T04:57:18;4.10;;;3.58;;
61527;SDS011;47395;42.032;-8.634;2023-08-30T04:59:20;4.03;;;3.72;;
61527;SDS011;47395;42.032;-8.634;2023-08-30T05:01:22;4.15;;;3.55;;
61527;SDS011;47395;42.032;-8.634;2023-08-30T05:03:26;3.80;;;3.47;;
61527;SDS011;47395;42.032;-8.634;2023-08-30T05:05:29;3.67;;;3.38;;
61527;SDS011;47395;42.032;-8.634;2023-08-30T05:07:32;5.40;;;3.40;;
61527;SDS011;47395;42.032;-8.634;2023-08-30T05:09:33;6.00;;;3.70;;
61527;SDS011;47395;42.032;-8.634;2023-08-30T05:11:36;4.20;;;3.45;;
61527;SDS011;47395;42.032;-8.634;2023-08-30T05:13:38;4.28;;;3.80;;
61527;SDS011;47395;42.032;-8.634;2023-08-30T05:15:40;5.53;;;3.42;;
61527;SDS011;47395;42.032;-8.634;2023-08-30T05:17:41;7.82;;;3.75;;
61527;SDS011;47395;42.032;-8.634;2023-08-30T05:19:42;7.63;;;3.92;;
61527;SDS011;47395;42.032;-8.634;2023-08-30T05:21:44;5.75;;;4.00;;
61527;SDS011;47395;42.032;-8.634;2023-08-30T05:23:45;4.03;;;3.42;;
61527;SDS011;47395;42.032;-8.634;2023-08-30T05:25:48;7.05;;;3.40;;
61527;SDS011;47395;42.032;-8.634;2023-08-30T05:27:50;3.60;;;3.17;;
61527;SDS011;47395;42.032;-8.634;2023-08-30T05:29:52;3.30;;;3.03;;
61527;SDS011;47395;42.032;-8.634;2023-08-30T05:31:53;4.80;;;3.40;;
61527;SDS011;47395;42.032;-8.634;2023-08-30T05:34:13;5.47;;;3.20;;
61527;SDS011;47395;42.032;-8.634;2023-08-30T05:36:38;3.85;;;3.53;;
61527;SDS011;47395;42.032;-8.634;2023-08-30T05:38:59;5.22;;;3.35;;
61527;SDS011;47395;42.032;-8.634;2023-08-30T05:41:23;5.32;;;2.92;;
61527;SDS011;47395;42.032;-8.634;2023-08-30T05:43:27;4.45;;;3.63;;
61527;SDS011;47395;42.032;-8.634;2023-08-30T05:45:28;5.13;;;3.60;;
61527;SDS011;47395;42.032;-8.634;2023-08-30T05:47:29;3.45;;;3.15;;
61527;SDS011;47395;42.032;-8.634;2023-08-30T05:49:30;3.35;;;3.15;;
61527;SDS011;47395;42.032;-8.634;2023-08-30T05:51:30;7.53;;;2.97;;
61527;SDS011;47395;42.032;-8.634;2023-08-30T05:53:31;4.88;;;3.15;;
61527;SDS011;47395;42.032;-8.634;2023-08-30T05:55:33;6.85;;;3.80;;
61527;SDS011;47395;42.032;-8.634;2023-08-30T05:57:34;4.65;;;3.22;;
61527;SDS011;47395;42.032;-8.634;2023-08-30T05:59:35;3.78;;;3.22;;
61527;SDS011;47395;42.032;-8.634;2023-08-30T06:01:36;5.78;;;3.40;;
61527;SDS011;47395;42.032;-8.634;2023-08-30T06:03:37;3.75;;;3.42;;
61527;SDS011;47395;42.032;-8.634;2023-08-30T06:05:39;4.68;;;3.75;;
61527;SDS011;47395;42.032;-8.634;2023-08-30T06:07:40;5.15;;;3.88;;
61527;SDS011;47395;42.032;-8.634;2023-08-30T06:09:41;3.97;;;3.63;;
61527;SDS011;47395;42.032;-8.634;2023-08-30T06:11:42;3.17;;;3.08;;
61527;SDS011;47395;42.032;-8.634;2023-08-30T06:13:43;3.78;;;3.47;;
61527;SDS011;47395;42.032;-8.634;2023-08-30T06:15:44;6.47;;;3.95;;
61527;SDS011;47395;42.032;-8.634;2023-08-30T06:17:46;5.10;;;4.57;;
61527;SDS011;47395;42.032;-8.634;2023-08-30T06:19:47;6.60;;;4.93;;
61527;SDS011;47395;42.032;-8.634;2023-08-30T06:21:49;7.38;;;4.55;;
61527;SDS011;47395;42.032;-8.634;2023-08-30T06:23:50;4.60;;;4.15;;
61527;SDS011;47395;42.032;-8.634;2023-08-30T06:25:56;9.00;;;4.65;;
61527;SDS011;47395;42.032;-8.634;2023-08-30T06:27:58;5.95;;;4.30;;
61527;SDS011;47395;42.032;-8.634;2023-08-30T06:29:59;3.70;;;3.40;;
61527;SDS011;47395;42.032;-8.634;2023-08-30T06:32:00;4.68;;;3.60;;
61527;SDS011;47395;42.032;-8.634;2023-08-30T06:34:02;4.05;;;3.58;;
61527;SDS011;47395;42.032;-8.634;2023-08-30T06:36:03;4.82;;;3.58;;
61527;SDS011;47395;42.032;-8.634;2023-08-30T06:38:04;3.95;;;3.65;;
61527;SDS011;47395;42.032;-8.634;2023-08-30T06:40:06;6.35;;;3.70;;
61527;SDS011;47395;42.032;-8.634;2023-08-30T06:42:07;5.75;;;3.25;;
61527;SDS011;47395;42.032;-8.634;2023-08-30T06:44:08;3.90;;;2.97;;
61527;SDS011;47395;42.032;-8.634;2023-08-30T06:46:09;5.18;;;2.83;;
61527;SDS011;47395;42.032;-8.634;2023-08-30T06:48:10;3.08;;;2.90;;
61527;SDS011;47395;42.032;-8.634;2023-08-30T06:50:11;5.30;;;2.97;;
61527;SDS011;47395;42.032;-8.634;2023-08-30T06:52:12;7.80;;;2.90;;
61527;SDS011;47395;42.032;-8.634;2023-08-30T06:54:13;3.53;;;2.88;;
61527;SDS011;47395;42.032;-8.634;2023-08-30T06:56:15;4.93;;;2.67;;
61527;SDS011;47395;42.032;-8.634;2023-08-30T06:58:16;3.83;;;2.83;;
61527;SDS011;47395;42.032;-8.634;2023-08-30T07:00:17;2.67;;;2.58;;
61527;SDS011;47395;42.032;-8.634;2023-08-30T07:02:18;5.20;;;2.33;;
61527;SDS011;47395;42.032;-8.634;2023-08-30T07:04:19;5.85;;;2.30;;
61527;SDS011;47395;42.032;-8.634;2023-08-30T07:06:20;3.20;;;2.22;;
61527;SDS011;47395;42.032;-8.634;2023-08-30T07:08:21;2.67;;;2.47;;
61527;SDS011;47395;42.032;-8.634;2023-08-30T07:10:22;2.58;;;2.35;;
61527;SDS011;47395;42.032;-8.634;2023-08-30T07:12:23;3.38;;;1.95;;
61527;SDS011;47395;42.032;-8.634;2023-08-30T07:14:25;2.25;;;1.88;;
61527;SDS011;47395;42.032;-8.634;2023-08-30T07:16:26;2.95;;;2.08;;
61527;SDS011;47395;42.032;-8.634;2023-08-30T07:18:27;4.00;;;2.60;;
61527;SDS011;47395;42.032;-8.634;2023-08-30T07:20:28;2.90;;;2.53;;
61527;SDS011;47395;42.032;-8.634;2023-08-30T07:22:29;6.40;;;2.80;;
61527;SDS011;47395;42.032;-8.634;2023-08-30T07:24:30;9.43;;;2.40;;
61527;SDS011;47395;42.032;-8.634;2023-08-30T07:26:31;2.40;;;1.75;;
61527;SDS011;47395;42.032;-8.634;2023-08-30T07:28:32;1.98;;;1.88;;
61527;SDS011;47395;42.032;-8.634;2023-08-30T07:30:33;2.05;;;1.90;;
61527;SDS011;47395;42.032;-8.634;2023-08-30T07:32:35;1.67;;;1.55;;
61527;SDS011;47395;42.032;-8.634;2023-08-30T07:34:38;1.77;;;1.67;;
61527;SDS011;47395;42.032;-8.634;2023-08-30T07:36:39;3.28;;;1.80;;
61527;SDS011;47395;42.032;-8.634;2023-08-30T07:38:40;3.05;;;1.70;;
61527;SDS011;47395;42.032;-8.634;2023-08-30T07:40:41;1.30;;;1.30;;
61527;SDS011;47395;42.032;-8.634;2023-08-30T07:42:42;5.50;;;2.03;;
61527;SDS011;47395;42.032;-8.634;2023-08-30T07:44:42;6.13;;;1.80;;
61527;SDS011;47395;42.032;-8.634;2023-08-30T07:46:43;2.35;;;2.10;;
61527;SDS011;47395;42.032;-8.634;2023-08-30T07:48:45;3.90;;;2.20;;
61527;SDS011;47395;42.032;-8.634;2023-08-30T07:50:46;3.17;;;2.60;;
61527;SDS011;47395;42.032;-8.634;2023-08-30T07:52:47;4.25;;;2.60;;
61527;SDS011;47395;42.032;-8.634;2023-08-30T07:54:48;1.92;;;1.85;;
61527;SDS011;47395;42.032;-8.634;2023-08-30T07:56:50;4.20;;;2.42;;
61527;SDS011;47395;42.032;-8.634;2023-08-30T07:58:51;6.65;;;2.75;;
61527;SDS011;47395;42.032;-8.634;2023-08-30T08:00:52;6.25;;;2.78;;
61527;SDS011;47395;42.032;-8.634;2023-08-30T08:02:53;4.03;;;2.30;;
61527;SDS011;47395;42.032;-8.634;2023-08-30T08:04:54;2.60;;;2.13;;
61527;SDS011;47395;42.032;-8.634;2023-08-30T08:06:55;3.80;;;2.17;;
61527;SDS011;47395;42.032;-8.634;2023-08-30T08:08:56;2.03;;;1.83;;
61527;SDS011;47395;42.032;-8.634;2023-08-30T08:10:58;3.40;;;2.00;;
61527;SDS011;47395;42.032;-8.634;2023-08-30T08:13:00;2.88;;;2.25;;
61527;SDS011;47395;42.032;-8.634;2023-08-30T08:15:01;2.67;;;1.90;;
61527;SDS011;47395;42.032;-8.634;2023-08-30T08:17:02;3.72;;;1.65;;
61527;SDS011;47395;42.032;-8.634;2023-08-30T08:19:04;4.75;;;1.73;;
61527;SDS011;47395;42.032;-8.634;2023-08-30T08:21:06;5.35;;;2.15;;
61527;SDS011;47395;42.032;-8.634;2023-08-30T08:23:07;2.17;;;1.92;;
61527;SDS011;47395;42.032;-8.634;2023-08-30T08:25:08;7.88;;;2.10;;
61527;SDS011;47395;42.032;-8.634;2023-08-30T08:27:10;4.38;;;1.88;;
61527;SDS011;47395;42.032;-8.634;2023-08-30T08:29:11;2.78;;;1.80;;
61527;SDS011;47395;42.032;-8.634;2023-08-30T08:31:12;4.35;;;1.92;;
61527;SDS011;47395;42.032;-8.634;2023-08-30T08:33:14;1.80;;;1.70;;
61527;SDS011;47395;42.032;-8.634;2023-08-30T08:35:16;2.03;;;1.67;;
61527;SDS011;47395;42.032;-8.634;2023-08-30T08:37:17;5.68;;;1.75;;
61527;SDS011;47395;42.032;-8.634;2023-08-30T08:39:17;3.55;;;1.50;;
61527;SDS011;47395;42.032;-8.634;2023-08-30T08:41:18;3.25;;;1.55;;
61527;SDS011;47395;42.032;-8.634;2023-08-30T08:43:19;1.75;;;1.60;;
61527;SDS011;47395;42.032;-8.634;2023-08-30T08:45:21;1.50;;;1.20;;
61527;SDS011;47395;42.032;-8.634;2023-08-30T08:47:23;2.72;;;1.63;;
61527;SDS011;47395;42.032;-8.634;2023-08-30T08:49:25;3.80;;;1.55;;
61527;SDS011;47395;42.032;-8.634;2023-08-30T08:51:30;1.90;;;1.13;;
61527;SDS011;47395;42.032;-8.634;2023-08-30T08:53:34;4.47;;;1.40;;
61527;SDS011;47395;42.032;-8.634;2023-08-30T08:55:37;4.18;;;1.40;;
61527;SDS011;47395;42.032;-8.634;2023-08-30T08:57:40;1.42;;;1.20;;
61527;SDS011;47395;42.032;-8.634;2023-08-30T08:59:43;1.15;;;1.10;;
61527;SDS011;47395;42.032;-8.634;2023-08-30T09:01:44;2.88;;;0.93;;
61527;SDS011;47395;42.032;-8.634;2023-08-30T09:03:46;1.70;;;0.90;;
61527;SDS011;47395;42.032;-8.634;2023-08-30T09:05:49;1.40;;;0.90;;
61527;SDS011;47395;42.032;-8.634;2023-08-30T09:07:51;3.95;;;1.05;;
61527;SDS011;47395;42.032;-8.634;2023-08-30T09:09:54;3.05;;;0.77;;
61527;SDS011;47395;42.032;-8.634;2023-08-30T09:11:55;3.67;;;1.00;;
61527;SDS011;47395;42.032;-8.634;2023-08-30T09:13:56;1.05;;;1.05;;
61527;SDS011;47395;42.032;-8.634;2023-08-30T09:15:56;0.70;;;0.70;;
61527;SDS011;47395;42.032;-8.634;2023-08-30T09:17:57;1.63;;;0.82;;
61527;SDS011;47395;42.032;-8.634;2023-08-30T09:20:05;1.33;;;1.00;;
61527;SDS011;47395;42.032;-8.634;2023-08-30T09:22:06;0.77;;;0.77;;
61527;SDS011;47395;42.032;-8.634;2023-08-30T09:24:07;1.65;;;0.93;;
61527;SDS011;47395;42.032;-8.634;2023-08-30T09:26:08;2.63;;;0.98;;
61527;SDS011;47395;42.032;-8.634;2023-08-30T09:28:09;2.55;;;0.80;;
61527;SDS011;47395;42.032;-8.634;2023-08-30T09:30:10;4.78;;;1.02;;
61527;SDS011;47395;42.032;-8.634;2023-08-30T09:32:20;0.80;;;0.80;;
61527;SDS011;47395;42.032;-8.634;2023-08-30T09:34:24;0.70;;;0.60;;
61527;SDS011;47395;42.032;-8.634;2023-08-30T09:36:25;3.90;;;0.80;;
61527;SDS011;47395;42.032;-8.634;2023-08-30T09:38:26;0.85;;;0.85;;
61527;SDS011;47395;42.032;-8.634;2023-08-30T09:40:28;3.70;;;0.80;;
61527;SDS011;47395;42.032;-8.634;2023-08-30T09:42:30;2.92;;;0.88;;
61527;SDS011;47395;42.032;-8.634;2023-08-30T09:44:32;1.95;;;0.80;;
61527;SDS011;47395;42.032;-8.634;2023-08-30T09:46:39;1.02;;;0.70;;
61527;SDS011;47395;42.032;-8.634;2023-08-30T09:48:48;6.15;;;0.93;;
61527;SDS011;47395;42.032;-8.634;2023-08-30T09:50:52;2.80;;;0.90;;
61527;SDS011;47395;42.032;-8.634;2023-08-30T09:52:58;1.63;;;0.90;;
61527;SDS011;47395;42.032;-8.634;2023-08-30T09:55:00;0.85;;;0.60;;
61527;SDS011;47395;42.032;-8.634;2023-08-30T09:57:04;0.80;;;0.65;;
61527;SDS011;47395;42.032;-8.634;2023-08-30T09:59:05;2.13;;;0.70;;
61527;SDS011;47395;42.032;-8.634;2023-08-30T10:01:07;4.30;;;1.30;;
61527;SDS011;47395;42.032;-8.634;2023-08-30T10:03:08;1.25;;;0.52;;
61527;SDS011;47395;42.032;-8.634;2023-08-30T10:05:09;1.13;;;0.80;;
61527;SDS011;47395;42.032;-8.634;2023-08-30T10:07:12;0.60;;;0.60;;
61527;SDS011;47395;42.032;-8.634;2023-08-30T10:09:15;0.75;;;0.60;;
61527;SDS011;47395;42.032;-8.634;2023-08-30T10:11:17;0.93;;;0.80;;
61527;SDS011;47395;42.032;-8.634;2023-08-30T10:13:18;2.13;;;0.80;;
61527;SDS011;47395;42.032;-8.634;2023-08-30T10:15:22;0.60;;;0.60;;
61527;SDS011;47395;42.032;-8.634;2023-08-30T10:17:28;0.73;;;0.73;;
61527;SDS011;47395;42.032;-8.634;2023-08-30T10:19:34;3.30;;;0.80;;
61527;SDS011;47395;42.032;-8.634;2023-08-30T10:21:38;1.60;;;0.70;;
61527;SDS011;47395;42.032;-8.634;2023-08-30T10:23:39;6.47;;;1.02;;
61527;SDS011;47395;42.032;-8.634;2023-08-30T10:25:41;1.13;;;0.70;;
61527;SDS011;47395;42.032;-8.634;2023-08-30T10:27:48;0.80;;;0.80;;
61527;SDS011;47395;42.032;-8.634;2023-08-30T10:29:50;0.80;;;0.80;;
61527;SDS011;47395;42.032;-8.634;2023-08-30T10:31:51;1.30;;;0.70;;
61527;SDS011;47395;42.032;-8.634;2023-08-30T10:33:53;4.15;;;1.08;;
61527;SDS011;47395;42.032;-8.634;2023-08-30T10:36:02;1.92;;;1.08;;
61527;SDS011;47395;42.032;-8.634;2023-08-30T10:38:07;4.05;;;1.00;;
61527;SDS011;47395;42.032;-8.634;2023-08-30T10:40:08;1.60;;;1.23;;
61527;SDS011;47395;42.032;-8.634;2023-08-30T10:42:13;2.70;;;1.35;;
61527;SDS011;47395;42.032;-8.634;2023-08-30T10:44:16;1.98;;;1.10;;
61527;SDS011;47395;42.032;-8.634;2023-08-30T10:46:34;1.75;;;1.20;;
61527;SDS011;47395;42.032;-8.634;2023-08-30T10:48:37;3.08;;;1.00;;
61527;SDS011;47395;42.032;-8.634;2023-08-30T10:50:38;1.38;;;1.25;;
61527;SDS011;47395;42.032;-8.634;2023-08-30T10:52:39;1.35;;;1.15;;
61527;SDS011;47395;42.032;-8.634;2023-08-30T10:54:40;2.45;;;1.20;;
61527;SDS011;47395;42.032;-8.634;2023-08-30T10:56:47;1.08;;;1.02;;
61527;SDS011;47395;42.032;-8.634;2023-08-30T10:58:49;7.93;;;1.13;;
61527;SDS011;47395;42.032;-8.634;2023-08-30T11:00:52;1.83;;;1.20;;
61527;SDS011;47395;42.032;-8.634;2023-08-30T11:02:55;1.83;;;1.00;;
61527;SDS011;47395;42.032;-8.634;2023-08-30T11:05:00;2.95;;;1.10;;
61527;SDS011;47395;42.032;-8.634;2023-08-30T11:07:01;1.67;;;1.20;;
61527;SDS011;47395;42.032;-8.634;2023-08-30T11:09:02;1.30;;;1.30;;
61527;SDS011;47395;42.032;-8.634;2023-08-30T11:11:05;3.63;;;1.17;;
61527;SDS011;47395;42.032;-8.634;2023-08-30T11:13:08;2.20;;;1.08;;
61527;SDS011;47395;42.032;-8.634;2023-08-30T11:15:10;1.50;;;1.30;;
61527;SDS011;47395;42.032;-8.634;2023-08-30T11:17:11;3.08;;;1.20;;
61527;SDS011;47395;42.032;-8.634;2023-08-30T11:19:12;1.33;;;1.05;;
61527;SDS011;47395;42.032;-8.634;2023-08-30T11:21:14;1.63;;;1.10;;
61527;SDS011;47395;42.032;-8.634;2023-08-30T11:23:15;4.72;;;1.10;;
61527;SDS011;47395;42.032;-8.634;2023-08-30T11:25:16;2.45;;;1.15;;
61527;SDS011;47395;42.032;-8.634;2023-08-30T11:27:17;1.85;;;1.20;;
61527;SDS011;47395;42.032;-8.634;2023-08-30T11:29:18;3.17;;;1.02;;
61527;SDS011;47395;42.032;-8.634;2023-08-30T11:31:22;1.67;;;1.40;;
61527;SDS011;47395;42.032;-8.634;2023-08-30T11:33:27;1.30;;;1.20;;
61527;SDS011;47395;42.032;-8.634;2023-08-30T11:35:28;3.13;;;1.10;;
61527;SDS011;47395;42.032;-8.634;2023-08-30T11:37:30;2.60;;;1.08;;
61527;SDS011;47395;42.032;-8.634;2023-08-30T11:39:31;1.67;;;1.13;;
61527;SDS011;47395;42.032;-8.634;2023-08-30T11:41:32;2.22;;;1.17;;
61527;SDS011;47395;42.032;-8.634;2023-08-30T11:43:33;3.58;;;1.35;;
61527;SDS011;47395;42.032;-8.634;2023-08-30T11:45:36;1.45;;;1.20;;
61527;SDS011;47395;42.032;-8.634;2023-08-30T11:47:37;2.75;;;0.98;;
61527;SDS011;47395;42.032;-8.634;2023-08-30T11:49:38;1.38;;;1.30;;
61527;SDS011;47395;42.032;-8.634;2023-08-30T11:51:40;3.22;;;1.40;;
61527;SDS011;47395;42.032;-8.634;2023-08-30T11:53:42;0.90;;;0.90;;
61527;SDS011;47395;42.032;-8.634;2023-08-30T11:55:44;4.80;;;0.90;;
61527;SDS011;47395;42.032;-8.634;2023-08-30T11:57:45;2.05;;;1.30;;
61527;SDS011;47395;42.032;-8.634;2023-08-30T11:59:49;11.57;;;1.20;;
61527;SDS011;47395;42.032;-8.634;2023-08-30T12:01:53;1.85;;;1.13;;
61527;SDS011;47395;42.032;-8.634;2023-08-30T12:03:54;2.25;;;1.13;;
61527;SDS011;47395;42.032;-8.634;2023-08-30T12:05:56;3.78;;;1.20;;
61527;SDS011;47395;42.032;-8.634;2023-08-30T12:07:58;3.22;;;1.33;;
61527;SDS011;47395;42.032;-8.634;2023-08-30T12:10:12;1.13;;;1.00;;
61527;SDS011;47395;42.032;-8.634;2023-08-30T12:12:15;3.35;;;1.10;;